sensor_id;sensor_type;location;lat;lon;timestamp;P1;durP1;ratioP1;P2;durP2;ratioP2
59571;SDS011;59406;45.602;11.904;2023-03-01T00:01:58;13.60;;;5.47;;
59571;SDS011;59406;45.602;11.904;2023-03-01T00:04:24;12.10;;;5.18;;
59571;SDS011;59406;45.602;11.904;2023-03-01T00:06:50;14.25;;;6.07;;
59571;SDS011;59406;45.602;11.904;2023-03-01T00:09:16;14.63;;;6.37;;
59571;SDS011;59406;45.602;11.904;2023-03-01T00:11:43;14.63;;;5.90;;
59571;SDS011;59406;45.602;11.904;2023-03-01T00:14:09;17.23;;;6.68;;
59571;SDS011;59406;45.602;11.904;2023-03-01T00:16:37;13.82;;;5.93;;
59571;SDS011;59406;45.602;11.904;2023-03-01T00:19:05;14.90;;;6.47;;
59571;SDS011;59406;45.602;11.904;2023-03-01T00:21:32;14.68;;;5.97;;
59571;SDS011;59406;45.602;11.904;2023-03-01T00:24:00;14.57;;;5.68;;
59571;SDS011;59406;45.602;11.904;2023-03-01T00:26:26;13.70;;;5.25;;
59571;SDS011;59406;45.602;11.904;2023-03-01T00:28:53;15.27;;;5.35;;
59571;SDS011;59406;45.602;11.904;2023-03-01T00:31:22;11.87;;;5.40;;
59571;SDS011;59406;45.602;11.904;2023-03-01T00:33:53;13.07;;;5.45;;
59571;SDS011;59406;45.602;11.904;2023-03-01T00:36:22;13.88;;;5.70;;
59571;SDS011;59406;45.602;11.904;2023-03-01T00:38:49;14.88;;;5.95;;
59571;SDS011;59406;45.602;11.904;2023-03-01T00:41:16;13.68;;;6.28;;
59571;SDS011;59406;45.602;11.904;2023-03-01T00:43:44;13.90;;;6.23;;
59571;SDS011;59406;45.602;11.904;2023-03-01T00:46:13;14.63;;;5.88;;
59571;SDS011;59406;45.602;11.904;2023-03-01T00:48:41;16.92;;;6.22;;
59571;SDS011;59406;45.602;11.904;2023-03-01T00:51:12;14.85;;;5.95;;
59571;SDS011;59406;45.602;11.904;2023-03-01T00:53:46;15.30;;;6.18;;
59571;SDS011;59406;45.602;11.904;2023-03-01T00:56:15;13.20;;;5.87;;
59571;SDS011;59406;45.602;11.904;2023-03-01T00:58:41;16.13;;;6.32;;
59571;SDS011;59406;45.602;11.904;2023-03-01T01:01:08;14.40;;;6.38;;
59571;SDS011;59406;45.602;11.904;2023-03-01T01:06:14;15.80;;;7.10;;
59571;SDS011;59406;45.602;11.904;2023-03-01T01:08:41;13.85;;;5.40;;
59571;SDS011;59406;45.602;11.904;2023-03-01T01:11:08;15.50;;;6.15;;
59571;SDS011;59406;45.602;11.904;2023-03-01T01:13:35;13.80;;;5.22;;
59571;SDS011;59406;45.602;11.904;2023-03-01T01:16:01;14.38;;;5.07;;
59571;SDS011;59406;45.602;11.904;2023-03-01T01:18:27;14.17;;;5.73;;
59571;SDS011;59406;45.602;11.904;2023-03-01T01:20:53;12.40;;;5.43;;
59571;SDS011;59406;45.602;11.904;2023-03-01T01:23:19;13.67;;;6.07;;
59571;SDS011;59406;45.602;11.904;2023-03-01T01:25:45;16.03;;;5.37;;
59571;SDS011;59406;45.602;11.904;2023-03-01T01:28:11;16.40;;;5.78;;
59571;SDS011;59406;45.602;11.904;2023-03-01T01:30:37;13.13;;;5.57;;
59571;SDS011;59406;45.602;11.904;2023-03-01T01:33:03;13.83;;;5.80;;
59571;SDS011;59406;45.602;11.904;2023-03-01T01:35:29;13.85;;;5.25;;
59571;SDS011;59406;45.602;11.904;2023-03-01T01:37:54;13.10;;;5.43;;
59571;SDS011;59406;45.602;11.904;2023-03-01T01:40:20;13.30;;;5.30;;
59571;SDS011;59406;45.602;11.904;2023-03-01T01:42:46;14.70;;;6.00;;
59571;SDS011;59406;45.602;11.904;2023-03-01T01:45:26;13.57;;;5.30;;
59571;SDS011;59406;45.602;11.904;2023-03-01T01:48:00;12.95;;;5.13;;
59571;SDS011;59406;45.602;11.904;2023-03-01T01:50:35;13.10;;;5.50;;
59571;SDS011;59406;45.602;11.904;2023-03-01T01:53:05;14.93;;;6.32;;
59571;SDS011;59406;45.602;11.904;2023-03-01T01:55:34;12.43;;;5.38;;
59571;SDS011;59406;45.602;11.904;2023-03-01T01:58:02;14.67;;;6.13;;
59571;SDS011;59406;45.602;11.904;2023-03-01T02:00:30;16.58;;;6.45;;
59571;SDS011;59406;45.602;11.904;2023-03-01T02:03:00;14.50;;;6.95;;
59571;SDS011;59406;45.602;11.904;2023-03-01T02:05:47;14.05;;;5.88;;
59571;SDS011;59406;45.602;11.904;2023-03-01T02:08:20;18.15;;;7.32;;
59571;SDS011;59406;45.602;11.904;2023-03-01T02:10:48;15.57;;;7.00;;
59571;SDS011;59406;45.602;11.904;2023-03-01T02:13:15;17.58;;;7.38;;
59571;SDS011;59406;45.602;11.904;2023-03-01T02:15:41;18.33;;;7.03;;
59571;SDS011;59406;45.602;11.904;2023-03-01T02:18:09;13.30;;;5.90;;
59571;SDS011;59406;45.602;11.904;2023-03-01T02:20:43;15.20;;;6.22;;
59571;SDS011;59406;45.602;11.904;2023-03-01T02:23:28;16.33;;;6.60;;
59571;SDS011;59406;45.602;11.904;2023-03-01T02:28:33;16.67;;;6.35;;
59571;SDS011;59406;45.602;11.904;2023-03-01T02:31:02;14.60;;;5.93;;
59571;SDS011;59406;45.602;11.904;2023-03-01T02:33:49;13.32;;;6.32;;
59571;SDS011;59406;45.602;11.904;2023-03-01T02:36:20;15.37;;;6.37;;
59571;SDS011;59406;45.602;11.904;2023-03-01T02:38:50;16.55;;;6.85;;
59571;SDS011;59406;45.602;11.904;2023-03-01T02:41:21;16.48;;;6.50;;
59571;SDS011;59406;45.602;11.904;2023-03-01T02:43:47;15.68;;;6.80;;
59571;SDS011;59406;45.602;11.904;2023-03-01T02:46:18;13.77;;;6.38;;
59571;SDS011;59406;45.602;11.904;2023-03-01T02:48:50;13.43;;;6.07;;
59571;SDS011;59406;45.602;11.904;2023-03-01T02:51:21;13.63;;;5.40;;
59571;SDS011;59406;45.602;11.904;2023-03-01T02:56:50;13.25;;;5.40;;
59571;SDS011;59406;45.602;11.904;2023-03-01T02:59:20;14.40;;;7.03;;
59571;SDS011;59406;45.602;11.904;2023-03-01T03:01:48;13.70;;;5.53;;
59571;SDS011;59406;45.602;11.904;2023-03-01T03:04:15;15.55;;;5.88;;
59571;SDS011;59406;45.602;11.904;2023-03-01T03:06:45;12.85;;;5.53;;
59571;SDS011;59406;45.602;11.904;2023-03-01T03:09:14;12.25;;;5.60;;
59571;SDS011;59406;45.602;11.904;2023-03-01T03:11:41;11.53;;;5.10;;
59571;SDS011;59406;45.602;11.904;2023-03-01T03:14:08;12.98;;;5.38;;
59571;SDS011;59406;45.602;11.904;2023-03-01T03:16:50;16.17;;;6.07;;
59571;SDS011;59406;45.602;11.904;2023-03-01T03:19:17;13.45;;;6.15;;
59571;SDS011;59406;45.602;11.904;2023-03-01T03:21:44;11.68;;;5.40;;
59571;SDS011;59406;45.602;11.904;2023-03-01T03:24:10;12.13;;;5.80;;
59571;SDS011;59406;45.602;11.904;2023-03-01T03:26:35;12.25;;;5.43;;
59571;SDS011;59406;45.602;11.904;2023-03-01T03:29:01;13.18;;;5.15;;
59571;SDS011;59406;45.602;11.904;2023-03-01T03:31:27;12.07;;;4.63;;
59571;SDS011;59406;45.602;11.904;2023-03-01T03:33:53;11.05;;;4.93;;
59571;SDS011;59406;45.602;11.904;2023-03-01T03:36:21;13.93;;;5.53;;
59571;SDS011;59406;45.602;11.904;2023-03-01T03:38:55;12.98;;;4.72;;
59571;SDS011;59406;45.602;11.904;2023-03-01T03:41:20;9.75;;;4.43;;
59571;SDS011;59406;45.602;11.904;2023-03-01T03:43:46;10.30;;;5.00;;
59571;SDS011;59406;45.602;11.904;2023-03-01T03:46:14;10.48;;;4.35;;
59571;SDS011;59406;45.602;11.904;2023-03-01T03:48:41;11.63;;;4.10;;
59571;SDS011;59406;45.602;11.904;2023-03-01T03:51:15;10.32;;;3.95;;
59571;SDS011;59406;45.602;11.904;2023-03-01T03:53:42;13.03;;;5.13;;
59571;SDS011;59406;45.602;11.904;2023-03-01T03:56:09;10.70;;;4.82;;
59571;SDS011;59406;45.602;11.904;2023-03-01T03:58:35;11.80;;;5.13;;
59571;SDS011;59406;45.602;11.904;2023-03-01T04:01:01;11.20;;;4.70;;
59571;SDS011;59406;45.602;11.904;2023-03-01T04:03:28;11.45;;;4.68;;
59571;SDS011;59406;45.602;11.904;2023-03-01T04:05:57;9.50;;;3.83;;
59571;SDS011;59406;45.602;11.904;2023-03-01T04:08:24;13.02;;;4.60;;
59571;SDS011;59406;45.602;11.904;2023-03-01T04:10:51;11.45;;;5.35;;
59571;SDS011;59406;45.602;11.904;2023-03-01T04:13:22;10.65;;;5.13;;
59571;SDS011;59406;45.602;11.904;2023-03-01T04:15:51;13.65;;;5.32;;
59571;SDS011;59406;45.602;11.904;2023-03-01T04:18:19;14.50;;;6.60;;
59571;SDS011;59406;45.602;11.904;2023-03-01T04:20:46;14.68;;;5.75;;
59571;SDS011;59406;45.602;11.904;2023-03-01T04:23:14;13.00;;;4.80;;
59571;SDS011;59406;45.602;11.904;2023-03-01T04:25:55;10.57;;;5.00;;
59571;SDS011;59406;45.602;11.904;2023-03-01T04:30:51;15.63;;;5.90;;
59571;SDS011;59406;45.602;11.904;2023-03-01T04:33:22;10.90;;;4.65;;
59571;SDS011;59406;45.602;11.904;2023-03-01T04:35:49;12.65;;;5.03;;
59571;SDS011;59406;45.602;11.904;2023-03-01T04:38:16;13.48;;;5.18;;
59571;SDS011;59406;45.602;11.904;2023-03-01T04:40:43;10.45;;;4.60;;
59571;SDS011;59406;45.602;11.904;2023-03-01T04:43:10;12.73;;;4.57;;
59571;SDS011;59406;45.602;11.904;2023-03-01T04:45:38;12.68;;;4.85;;
59571;SDS011;59406;45.602;11.904;2023-03-01T04:48:04;9.32;;;4.28;;
59571;SDS011;59406;45.602;11.904;2023-03-01T04:50:30;13.95;;;5.63;;
59571;SDS011;59406;45.602;11.904;2023-03-01T04:52:57;12.07;;;4.33;;
59571;SDS011;59406;45.602;11.904;2023-03-01T04:55:26;13.02;;;4.40;;
59571;SDS011;59406;45.602;11.904;2023-03-01T04:57:53;12.43;;;4.63;;
59571;SDS011;59406;45.602;11.904;2023-03-01T05:00:19;10.45;;;4.10;;
59571;SDS011;59406;45.602;11.904;2023-03-01T05:02:50;12.25;;;4.50;;
59571;SDS011;59406;45.602;11.904;2023-03-01T05:08:14;11.70;;;4.28;;
59571;SDS011;59406;45.602;11.904;2023-03-01T05:10:52;9.93;;;3.53;;
59571;SDS011;59406;45.602;11.904;2023-03-01T05:13:19;9.90;;;3.60;;
59571;SDS011;59406;45.602;11.904;2023-03-01T05:15:58;9.50;;;3.20;;
59571;SDS011;59406;45.602;11.904;2023-03-01T05:18:26;9.43;;;3.20;;
59571;SDS011;59406;45.602;11.904;2023-03-01T05:20:54;9.38;;;3.55;;
59571;SDS011;59406;45.602;11.904;2023-03-01T05:25:57;11.65;;;3.80;;
59571;SDS011;59406;45.602;11.904;2023-03-01T05:28:25;10.25;;;3.13;;
59571;SDS011;59406;45.602;11.904;2023-03-01T05:30:51;10.93;;;3.73;;
59571;SDS011;59406;45.602;11.904;2023-03-01T05:33:17;10.07;;;3.67;;
59571;SDS011;59406;45.602;11.904;2023-03-01T05:35:44;10.18;;;3.28;;
59571;SDS011;59406;45.602;11.904;2023-03-01T05:38:11;9.20;;;3.47;;
59571;SDS011;59406;45.602;11.904;2023-03-01T05:40:40;9.27;;;2.90;;
59571;SDS011;59406;45.602;11.904;2023-03-01T05:43:07;9.57;;;3.63;;
59571;SDS011;59406;45.602;11.904;2023-03-01T05:45:35;9.38;;;3.78;;
59571;SDS011;59406;45.602;11.904;2023-03-01T05:48:02;12.38;;;3.63;;
59571;SDS011;59406;45.602;11.904;2023-03-01T05:50:32;10.95;;;3.63;;
59571;SDS011;59406;45.602;11.904;2023-03-01T05:55:31;8.10;;;2.90;;
59571;SDS011;59406;45.602;11.904;2023-03-01T05:57:58;10.63;;;3.42;;
59571;SDS011;59406;45.602;11.904;2023-03-01T06:00:25;10.63;;;3.80;;
59571;SDS011;59406;45.602;11.904;2023-03-01T06:02:53;10.00;;;4.20;;
59571;SDS011;59406;45.602;11.904;2023-03-01T06:05:19;9.55;;;3.90;;
59571;SDS011;59406;45.602;11.904;2023-03-01T06:07:46;11.13;;;3.43;;
59571;SDS011;59406;45.602;11.904;2023-03-01T06:10:12;9.93;;;3.30;;
59571;SDS011;59406;45.602;11.904;2023-03-01T06:12:40;8.13;;;2.72;;
59571;SDS011;59406;45.602;11.904;2023-03-01T06:15:06;8.05;;;2.65;;
59571;SDS011;59406;45.602;11.904;2023-03-01T06:17:36;8.68;;;2.60;;
59571;SDS011;59406;45.602;11.904;2023-03-01T06:20:04;11.63;;;3.07;;
59571;SDS011;59406;45.602;11.904;2023-03-01T06:22:32;8.18;;;3.20;;
59571;SDS011;59406;45.602;11.904;2023-03-01T06:24:57;8.77;;;3.38;;
59571;SDS011;59406;45.602;11.904;2023-03-01T06:27:23;11.27;;;4.05;;
59571;SDS011;59406;45.602;11.904;2023-03-01T06:29:49;10.80;;;4.20;;
59571;SDS011;59406;45.602;11.904;2023-03-01T06:32:15;9.70;;;4.22;;
59571;SDS011;59406;45.602;11.904;2023-03-01T06:34:41;10.55;;;4.13;;
59571;SDS011;59406;45.602;11.904;2023-03-01T06:37:07;10.68;;;4.32;;
59571;SDS011;59406;45.602;11.904;2023-03-01T06:39:33;10.13;;;4.50;;
59571;SDS011;59406;45.602;11.904;2023-03-01T06:41:59;11.77;;;4.87;;
59571;SDS011;59406;45.602;11.904;2023-03-01T06:44:26;11.48;;;4.75;;
59571;SDS011;59406;45.602;11.904;2023-03-01T06:46:52;11.65;;;4.53;;
59571;SDS011;59406;45.602;11.904;2023-03-01T06:49:18;8.95;;;4.53;;
59571;SDS011;59406;45.602;11.904;2023-03-01T06:51:45;10.38;;;4.32;;
59571;SDS011;59406;45.602;11.904;2023-03-01T06:54:11;9.63;;;4.00;;
59571;SDS011;59406;45.602;11.904;2023-03-01T06:56:38;10.40;;;4.80;;
59571;SDS011;59406;45.602;11.904;2023-03-01T06:59:04;10.63;;;4.90;;
59571;SDS011;59406;45.602;11.904;2023-03-01T07:01:30;9.43;;;3.92;;
59571;SDS011;59406;45.602;11.904;2023-03-01T07:03:56;10.35;;;4.63;;
59571;SDS011;59406;45.602;11.904;2023-03-01T07:06:22;9.33;;;4.37;;
59571;SDS011;59406;45.602;11.904;2023-03-01T07:08:48;9.77;;;4.20;;
59571;SDS011;59406;45.602;11.904;2023-03-01T07:11:15;9.70;;;4.25;;
59571;SDS011;59406;45.602;11.904;2023-03-01T07:13:41;10.35;;;4.70;;
59571;SDS011;59406;45.602;11.904;2023-03-01T07:16:07;13.25;;;5.15;;
59571;SDS011;59406;45.602;11.904;2023-03-01T07:18:33;11.23;;;4.90;;
59571;SDS011;59406;45.602;11.904;2023-03-01T07:21:03;9.65;;;4.07;;
59571;SDS011;59406;45.602;11.904;2023-03-01T07:23:31;8.18;;;3.88;;
59571;SDS011;59406;45.602;11.904;2023-03-01T07:25:57;8.27;;;3.33;;
59571;SDS011;59406;45.602;11.904;2023-03-01T07:28:23;10.23;;;3.90;;
59571;SDS011;59406;45.602;11.904;2023-03-01T07:30:50;10.15;;;3.97;;
59571;SDS011;59406;45.602;11.904;2023-03-01T07:33:16;15.30;;;5.65;;
59571;SDS011;59406;45.602;11.904;2023-03-01T07:35:42;13.05;;;5.70;;
59571;SDS011;59406;45.602;11.904;2023-03-01T07:38:08;13.73;;;5.63;;
59571;SDS011;59406;45.602;11.904;2023-03-01T07:40:34;13.32;;;5.45;;
59571;SDS011;59406;45.602;11.904;2023-03-01T07:43:00;12.07;;;5.43;;
59571;SDS011;59406;45.602;11.904;2023-03-01T07:45:26;11.13;;;5.20;;
59571;SDS011;59406;45.602;11.904;2023-03-01T07:47:53;12.98;;;6.05;;
59571;SDS011;59406;45.602;11.904;2023-03-01T07:50:20;12.98;;;5.25;;
59571;SDS011;59406;45.602;11.904;2023-03-01T07:52:46;12.48;;;5.45;;
59571;SDS011;59406;45.602;11.904;2023-03-01T07:55:13;12.77;;;5.32;;
59571;SDS011;59406;45.602;11.904;2023-03-01T07:57:40;10.30;;;4.63;;
59571;SDS011;59406;45.602;11.904;2023-03-01T08:00:06;12.45;;;5.28;;
59571;SDS011;59406;45.602;11.904;2023-03-01T08:02:35;11.55;;;5.18;;
59571;SDS011;59406;45.602;11.904;2023-03-01T08:05:00;11.77;;;4.97;;
59571;SDS011;59406;45.602;11.904;2023-03-01T08:07:26;11.87;;;5.10;;
59571;SDS011;59406;45.602;11.904;2023-03-01T08:09:52;11.80;;;4.93;;
59571;SDS011;59406;45.602;11.904;2023-03-01T08:12:18;11.63;;;4.75;;
59571;SDS011;59406;45.602;11.904;2023-03-01T08:14:44;9.18;;;4.90;;
59571;SDS011;59406;45.602;11.904;2023-03-01T08:17:12;10.13;;;4.27;;
59571;SDS011;59406;45.602;11.904;2023-03-01T08:19:39;8.57;;;3.97;;
59571;SDS011;59406;45.602;11.904;2023-03-01T08:22:05;10.20;;;4.28;;
59571;SDS011;59406;45.602;11.904;2023-03-01T08:24:31;9.47;;;3.90;;
59571;SDS011;59406;45.602;11.904;2023-03-01T08:26:57;10.15;;;4.13;;
59571;SDS011;59406;45.602;11.904;2023-03-01T08:29:22;7.47;;;2.90;;
59571;SDS011;59406;45.602;11.904;2023-03-01T08:31:50;8.57;;;3.73;;
59571;SDS011;59406;45.602;11.904;2023-03-01T08:34:16;7.60;;;2.97;;
59571;SDS011;59406;45.602;11.904;2023-03-01T08:39:13;9.98;;;3.20;;
59571;SDS011;59406;45.602;11.904;2023-03-01T08:41:41;8.63;;;3.10;;
59571;SDS011;59406;45.602;11.904;2023-03-01T08:44:07;7.87;;;2.40;;
59571;SDS011;59406;45.602;11.904;2023-03-01T08:46:36;8.95;;;3.33;;
59571;SDS011;59406;45.602;11.904;2023-03-01T08:49:15;8.77;;;3.58;;
59571;SDS011;59406;45.602;11.904;2023-03-01T08:51:42;9.18;;;3.25;;
59571;SDS011;59406;45.602;11.904;2023-03-01T08:54:11;7.70;;;2.80;;
59571;SDS011;59406;45.602;11.904;2023-03-01T08:56:40;7.43;;;3.07;;
59571;SDS011;59406;45.602;11.904;2023-03-01T08:59:06;8.30;;;2.90;;
59571;SDS011;59406;45.602;11.904;2023-03-01T09:01:32;8.27;;;2.88;;
59571;SDS011;59406;45.602;11.904;2023-03-01T09:03:59;13.60;;;2.92;;
59571;SDS011;59406;45.602;11.904;2023-03-01T09:06:25;13.35;;;3.10;;
59571;SDS011;59406;45.602;11.904;2023-03-01T09:08:50;8.27;;;3.53;;
59571;SDS011;59406;45.602;11.904;2023-03-01T09:11:19;9.00;;;3.40;;
59571;SDS011;59406;45.602;11.904;2023-03-01T09:13:46;10.90;;;3.35;;
59571;SDS011;59406;45.602;11.904;2023-03-01T09:16:14;9.70;;;3.25;;
59571;SDS011;59406;45.602;11.904;2023-03-01T09:18:43;8.43;;;3.27;;
59571;SDS011;59406;45.602;11.904;2023-03-01T09:21:11;7.78;;;3.30;;
59571;SDS011;59406;45.602;11.904;2023-03-01T09:23:42;8.43;;;3.58;;
59571;SDS011;59406;45.602;11.904;2023-03-01T09:26:09;10.35;;;3.80;;
59571;SDS011;59406;45.602;11.904;2023-03-01T09:28:44;9.57;;;3.92;;
59571;SDS011;59406;45.602;11.904;2023-03-01T09:31:11;7.67;;;2.90;;
59571;SDS011;59406;45.602;11.904;2023-03-01T09:33:38;10.23;;;3.28;;
59571;SDS011;59406;45.602;11.904;2023-03-01T09:36:14;7.60;;;3.03;;
59571;SDS011;59406;45.602;11.904;2023-03-01T09:38:42;7.72;;;3.15;;
59571;SDS011;59406;45.602;11.904;2023-03-01T09:44:48;9.65;;;3.08;;
59571;SDS011;59406;45.602;11.904;2023-03-01T09:49:21;7.10;;;2.13;;
59571;SDS011;59406;45.602;11.904;2023-03-01T09:52:39;9.02;;;2.90;;
59571;SDS011;59406;45.602;11.904;2023-03-01T09:55:04;8.40;;;3.10;;
59571;SDS011;59406;45.602;11.904;2023-03-01T09:57:47;8.50;;;2.55;;
59571;SDS011;59406;45.602;11.904;2023-03-01T10:03:01;6.95;;;3.00;;
59571;SDS011;59406;45.602;11.904;2023-03-01T10:05:54;8.43;;;3.30;;
59571;SDS011;59406;45.602;11.904;2023-03-01T10:11:02;11.50;;;4.00;;
59571;SDS011;59406;45.602;11.904;2023-03-01T10:15:56;8.63;;;3.15;;
59571;SDS011;59406;45.602;11.904;2023-03-01T10:18:27;5.43;;;2.42;;
59571;SDS011;59406;45.602;11.904;2023-03-01T10:20:56;7.07;;;2.40;;
59571;SDS011;59406;45.602;11.904;2023-03-01T10:23:29;7.38;;;2.70;;
59571;SDS011;59406;45.602;11.904;2023-03-01T10:28:42;9.38;;;2.63;;
59571;SDS011;59406;45.602;11.904;2023-03-01T10:31:20;9.25;;;2.67;;
59571;SDS011;59406;45.602;11.904;2023-03-01T10:33:54;12.77;;;3.33;;
59571;SDS011;59406;45.602;11.904;2023-03-01T10:36:22;6.53;;;2.45;;
59571;SDS011;59406;45.602;11.904;2023-03-01T10:38:55;9.40;;;2.55;;
59571;SDS011;59406;45.602;11.904;2023-03-01T10:41:23;8.65;;;2.75;;
59571;SDS011;59406;45.602;11.904;2023-03-01T10:43:52;11.50;;;2.25;;
59571;SDS011;59406;45.602;11.904;2023-03-01T10:46:37;11.57;;;2.40;;
59571;SDS011;59406;45.602;11.904;2023-03-01T10:51:46;9.00;;;2.65;;
59571;SDS011;59406;45.602;11.904;2023-03-01T10:54:16;6.68;;;2.55;;
59571;SDS011;59406;45.602;11.904;2023-03-01T10:56:54;9.07;;;2.58;;
59571;SDS011;59406;45.602;11.904;2023-03-01T10:59:29;10.20;;;2.77;;
59571;SDS011;59406;45.602;11.904;2023-03-01T11:02:21;7.15;;;2.40;;
59571;SDS011;59406;45.602;11.904;2023-03-01T11:05:17;8.63;;;2.25;;
59571;SDS011;59406;45.602;11.904;2023-03-01T11:07:52;8.73;;;2.58;;
59571;SDS011;59406;45.602;11.904;2023-03-01T11:12:51;8.10;;;2.70;;
59571;SDS011;59406;45.602;11.904;2023-03-01T11:15:21;7.50;;;2.55;;
59571;SDS011;59406;45.602;11.904;2023-03-01T11:17:52;11.82;;;2.35;;
59571;SDS011;59406;45.602;11.904;2023-03-01T11:20:25;7.55;;;2.05;;
59571;SDS011;59406;45.602;11.904;2023-03-01T11:23:04;11.65;;;2.70;;
59571;SDS011;59406;45.602;11.904;2023-03-01T11:25:37;7.97;;;2.30;;
59571;SDS011;59406;45.602;11.904;2023-03-01T11:28:17;7.38;;;2.45;;
59571;SDS011;59406;45.602;11.904;2023-03-01T11:33:33;12.35;;;2.58;;
59571;SDS011;59406;45.602;11.904;2023-03-01T11:38:56;8.23;;;2.67;;
59571;SDS011;59406;45.602;11.904;2023-03-01T11:41:28;12.02;;;3.20;;
59571;SDS011;59406;45.602;11.904;2023-03-01T11:43:58;8.93;;;2.58;;
59571;SDS011;59406;45.602;11.904;2023-03-01T11:46:34;11.60;;;2.70;;
59571;SDS011;59406;45.602;11.904;2023-03-01T11:52:33;10.10;;;2.57;;
59571;SDS011;59406;45.602;11.904;2023-03-01T11:55:58;7.82;;;2.35;;
59571;SDS011;59406;45.602;11.904;2023-03-01T12:01:08;11.65;;;2.90;;
59571;SDS011;59406;45.602;11.904;2023-03-01T12:06:35;12.60;;;2.53;;
59571;SDS011;59406;45.602;11.904;2023-03-01T12:17:23;9.45;;;2.83;;
59571;SDS011;59406;45.602;11.904;2023-03-01T12:34:30;9.20;;;2.33;;
59571;SDS011;59406;45.602;11.904;2023-03-01T12:48:55;11.07;;;2.33;;
59571;SDS011;59406;45.602;11.904;2023-03-01T12:51:38;9.18;;;2.40;;
59571;SDS011;59406;45.602;11.904;2023-03-01T12:54:14;7.13;;;2.70;;
59571;SDS011;59406;45.602;11.904;2023-03-01T12:56:46;9.63;;;2.72;;
59571;SDS011;59406;45.602;11.904;2023-03-01T13:02:09;9.87;;;3.47;;
59571;SDS011;59406;45.602;11.904;2023-03-01T13:07:30;11.70;;;2.80;;
59571;SDS011;59406;45.602;11.904;2023-03-01T13:13:20;11.15;;;3.10;;
59571;SDS011;59406;45.602;11.904;2023-03-01T13:15:48;9.83;;;3.43;;
59571;SDS011;59406;45.602;11.904;2023-03-01T13:28:41;7.57;;;3.07;;
59571;SDS011;59406;45.602;11.904;2023-03-01T13:33:55;9.35;;;2.40;;
59571;SDS011;59406;45.602;11.904;2023-03-01T13:44:48;8.70;;;2.90;;
59571;SDS011;59406;45.602;11.904;2023-03-01T13:54:50;9.43;;;2.60;;
59571;SDS011;59406;45.602;11.904;2023-03-01T13:57:19;9.93;;;2.83;;
59571;SDS011;59406;45.602;11.904;2023-03-01T13:59:50;7.38;;;1.92;;
59571;SDS011;59406;45.602;11.904;2023-03-01T14:02:16;9.90;;;2.55;;
59571;SDS011;59406;45.602;11.904;2023-03-01T14:04:42;7.63;;;2.10;;
59571;SDS011;59406;45.602;11.904;2023-03-01T14:07:11;7.32;;;2.45;;
59571;SDS011;59406;45.602;11.904;2023-03-01T14:09:45;9.23;;;2.55;;
59571;SDS011;59406;45.602;11.904;2023-03-01T14:15:46;9.05;;;3.20;;
59571;SDS011;59406;45.602;11.904;2023-03-01T14:18:31;10.00;;;2.57;;
59571;SDS011;59406;45.602;11.904;2023-03-01T14:21:07;9.13;;;2.88;;
59571;SDS011;59406;45.602;11.904;2023-03-01T14:23:34;8.85;;;3.45;;
59571;SDS011;59406;45.602;11.904;2023-03-01T14:26:03;9.88;;;3.72;;
59571;SDS011;59406;45.602;11.904;2023-03-01T14:28:32;10.27;;;3.60;;
59571;SDS011;59406;45.602;11.904;2023-03-01T14:31:02;9.50;;;3.13;;
59571;SDS011;59406;45.602;11.904;2023-03-01T14:33:32;7.78;;;2.97;;
59571;SDS011;59406;45.602;11.904;2023-03-01T14:36:02;9.98;;;3.10;;
59571;SDS011;59406;45.602;11.904;2023-03-01T14:38:38;9.10;;;2.80;;
59571;SDS011;59406;45.602;11.904;2023-03-01T14:41:12;8.32;;;2.85;;
59571;SDS011;59406;45.602;11.904;2023-03-01T14:43:51;8.47;;;3.03;;
59571;SDS011;59406;45.602;11.904;2023-03-01T14:49:01;7.70;;;2.67;;
59571;SDS011;59406;45.602;11.904;2023-03-01T14:51:42;11.30;;;3.13;;
59571;SDS011;59406;45.602;11.904;2023-03-01T14:54:28;9.43;;;3.30;;
59571;SDS011;59406;45.602;11.904;2023-03-01T14:57:05;9.97;;;3.40;;
59571;SDS011;59406;45.602;11.904;2023-03-01T14:59:32;8.32;;;2.90;;
59571;SDS011;59406;45.602;11.904;2023-03-01T15:02:00;12.18;;;4.45;;
59571;SDS011;59406;45.602;11.904;2023-03-01T15:04:26;14.02;;;2.60;;
59571;SDS011;59406;45.602;11.904;2023-03-01T15:06:53;9.32;;;3.40;;
59571;SDS011;59406;45.602;11.904;2023-03-01T15:09:21;10.83;;;3.63;;
59571;SDS011;59406;45.602;11.904;2023-03-01T15:11:49;8.23;;;2.63;;
59571;SDS011;59406;45.602;11.904;2023-03-01T15:17:17;7.50;;;2.70;;
59571;SDS011;59406;45.602;11.904;2023-03-01T15:19:48;7.38;;;2.97;;
59571;SDS011;59406;45.602;11.904;2023-03-01T15:22:15;9.03;;;3.20;;
59571;SDS011;59406;45.602;11.904;2023-03-01T15:24:41;8.07;;;3.00;;
59571;SDS011;59406;45.602;11.904;2023-03-01T15:27:16;8.55;;;3.85;;
59571;SDS011;59406;45.602;11.904;2023-03-01T15:29:49;7.82;;;2.50;;
59571;SDS011;59406;45.602;11.904;2023-03-01T15:32:25;7.05;;;2.33;;
59571;SDS011;59406;45.602;11.904;2023-03-01T15:34:51;9.97;;;3.27;;
59571;SDS011;59406;45.602;11.904;2023-03-01T15:40:20;7.15;;;1.98;;
59571;SDS011;59406;45.602;11.904;2023-03-01T15:46:02;6.70;;;2.28;;
59571;SDS011;59406;45.602;11.904;2023-03-01T15:48:29;7.23;;;2.20;;
59571;SDS011;59406;45.602;11.904;2023-03-01T15:50:56;5.68;;;1.60;;
59571;SDS011;59406;45.602;11.904;2023-03-01T15:53:24;4.60;;;1.52;;
59571;SDS011;59406;45.602;11.904;2023-03-01T15:55:53;5.30;;;1.60;;
59571;SDS011;59406;45.602;11.904;2023-03-01T15:58:20;6.00;;;1.70;;
59571;SDS011;59406;45.602;11.904;2023-03-01T16:00:48;6.07;;;1.57;;
59571;SDS011;59406;45.602;11.904;2023-03-01T16:03:21;9.40;;;2.28;;
59571;SDS011;59406;45.602;11.904;2023-03-01T16:05:48;5.63;;;1.70;;
59571;SDS011;59406;45.602;11.904;2023-03-01T16:08:15;8.00;;;2.10;;
59571;SDS011;59406;45.602;11.904;2023-03-01T16:10:42;5.00;;;1.63;;
59571;SDS011;59406;45.602;11.904;2023-03-01T16:13:09;7.77;;;1.80;;
59571;SDS011;59406;45.602;11.904;2023-03-01T16:15:38;5.88;;;1.52;;
59571;SDS011;59406;45.602;11.904;2023-03-01T16:18:04;6.32;;;2.08;;
59571;SDS011;59406;45.602;11.904;2023-03-01T16:20:33;5.80;;;1.50;;
59571;SDS011;59406;45.602;11.904;2023-03-01T16:23:00;5.40;;;1.98;;
59571;SDS011;59406;45.602;11.904;2023-03-01T16:25:27;6.43;;;2.40;;
59571;SDS011;59406;45.602;11.904;2023-03-01T16:27:53;6.03;;;2.15;;
59571;SDS011;59406;45.602;11.904;2023-03-01T16:30:21;6.55;;;2.00;;
59571;SDS011;59406;45.602;11.904;2023-03-01T16:32:48;6.22;;;2.30;;
59571;SDS011;59406;45.602;11.904;2023-03-01T16:35:16;7.35;;;2.90;;
59571;SDS011;59406;45.602;11.904;2023-03-01T16:37:44;7.37;;;2.60;;
59571;SDS011;59406;45.602;11.904;2023-03-01T16:40:20;6.70;;;2.60;;
59571;SDS011;59406;45.602;11.904;2023-03-01T16:42:53;6.45;;;2.80;;
59571;SDS011;59406;45.602;11.904;2023-03-01T16:45:24;7.95;;;2.47;;
59571;SDS011;59406;45.602;11.904;2023-03-01T16:47:51;8.23;;;3.10;;
59571;SDS011;59406;45.602;11.904;2023-03-01T16:50:17;6.37;;;2.47;;
59571;SDS011;59406;45.602;11.904;2023-03-01T16:52:43;8.77;;;2.90;;
59571;SDS011;59406;45.602;11.904;2023-03-01T16:55:09;8.30;;;2.70;;
59571;SDS011;59406;45.602;11.904;2023-03-01T16:57:36;9.15;;;3.33;;
59571;SDS011;59406;45.602;11.904;2023-03-01T17:00:04;7.17;;;2.80;;
59571;SDS011;59406;45.602;11.904;2023-03-01T17:02:33;7.75;;;2.70;;
59571;SDS011;59406;45.602;11.904;2023-03-01T17:05:00;6.68;;;2.55;;
59571;SDS011;59406;45.602;11.904;2023-03-01T17:07:25;6.72;;;2.30;;